Time;durP1;ratioP1;P1;durP2;ratioP2;P2;SDS_P1;SDS_P2;PMS_P1;PMS_P2;Temp;Humidity;BMP_temperature;BMP_pressure;BME280_temperature;BME280_humidity;BME280_pressure;Samples;Min_cycle;Max_cycle;Signal;HPM_P1;HPM_P2
2023/07/06 00:00:48;;;;;;;56.67;2.30;;;;;;;;;;5032317;28;20552;-68
2023/07/06 00:03:15;;;;;;;57.00;2.40;;;;;;;;;;5032070;28;20456;-68
2023/07/06 00:05:45;;;;;;;57.00;2.50;;;;;;;;;;5032022;28;20487;-67
2023/07/06 00:08:12;;;;;;;56.90;2.07;;;;;;;;;;5032164;28;20485;-68
2023/07/06 00:10:39;;;;;;;56.60;1.97;;;;;;;;;;5032029;28;20449;-68
2023/07/06 00:13:06;;;;;;;57.07;2.20;;;;;;;;;;5032124;28;20440;-67
2023/07/06 00:15:34;;;;;;;56.57;2.10;;;;;;;;;;5031516;28;20449;-68
2023/07/06 00:18:02;;;;;;;56.80;2.23;;;;;;;;;;5031034;28;20476;-68
2023/07/06 00:20:30;;;;;;;56.77;2.07;;;;;;;;;;5031856;28;20441;-68
2023/07/06 00:22:58;;;;;;;56.63;2.00;;;;;;;;;;5032042;28;20951;-67
2023/07/06 00:25:26;;;;;;;57.27;2.70;;;;;;;;;;5031742;28;20452;-68
2023/07/06 00:27:54;;;;;;;56.97;2.50;;;;;;;;;;5031709;28;20523;-68
2023/07/06 00:30:30;;;;;;;56.80;2.17;;;;;;;;;;5031617;28;20930;-68
2023/07/06 00:32:57;;;;;;;56.80;2.30;;;;;;;;;;5031580;28;20584;-68
2023/07/06 00:35:25;;;;;;;56.60;1.93;;;;;;;;;;5031421;28;20829;-67
2023/07/06 00:37:54;;;;;;;56.80;2.00;;;;;;;;;;5031594;28;20473;-68
2023/07/06 00:40:23;;;;;;;56.80;2.23;;;;;;;;;;5031658;28;20453;-68
2023/07/06 00:42:50;;;;;;;56.73;1.97;;;;;;;;;;5031881;28;20484;-67
2023/07/06 00:45:18;;;;;;;57.10;2.23;;;;;;;;;;5031146;28;20456;-68
2023/07/06 00:47:48;;;;;;;56.87;2.30;;;;;;;;;;5031747;28;20485;-68
2023/07/06 00:50:17;;;;;;;56.67;2.10;;;;;;;;;;5031503;28;20445;-68
2023/07/06 00:52:48;;;;;;;56.77;2.20;;;;;;;;;;5031334;28;20481;-68
2023/07/06 00:55:16;;;;;;;56.90;2.30;;;;;;;;;;5031069;28;20933;-67
2023/07/06 00:57:44;;;;;;;56.70;2.20;;;;;;;;;;5031262;28;20473;-68
2023/07/06 01:00:20;;;;;;;56.90;2.20;;;;;;;;;;5031269;28;20964;-68
2023/07/06 01:02:48;;;;;;;57.17;2.77;;;;;;;;;;5031339;28;20479;-68
2023/07/06 01:05:15;;;;;;;56.80;2.13;;;;;;;;;;5031068;28;20453;-68
2023/07/06 01:07:44;;;;;;;56.80;2.30;;;;;;;;;;5030989;28;20465;-68
2023/07/06 01:10:12;;;;;;;57.17;2.80;;;;;;;;;;5031315;28;20472;-68
2023/07/06 01:12:39;;;;;;;56.77;2.10;;;;;;;;;;5031435;28;20855;-68
2023/07/06 01:15:07;;;;;;;57.70;3.20;;;;;;;;;;5031233;28;20448;-68
2023/07/06 01:17:41;;;;;;;56.80;2.30;;;;;;;;;;5031015;28;20888;-68
2023/07/06 01:20:14;;;;;;;56.90;2.30;;;;;;;;;;5031426;28;20445;-68
2023/07/06 01:22:52;;;;;;;56.87;2.10;;;;;;;;;;5030972;28;21017;-68
2023/07/06 01:25:24;;;;;;;56.80;2.20;;;;;;;;;;5031095;28;20456;-68
2023/07/06 01:28:04;;;;;;;57.03;2.40;;;;;;;;;;5032186;28;20469;-68
2023/07/06 01:30:48;;;;;;;57.33;2.57;;;;;;;;;;5035163;28;20456;-68
2023/07/06 01:33:19;;;;;;;56.93;2.10;;;;;;;;;;5035226;28;20484;-68
2023/07/06 01:35:52;;;;;;;57.00;2.47;;;;;;;;;;5034906;28;20855;-68
2023/07/06 01:38:22;;;;;;;60.57;2.70;;;;;;;;;;5035317;28;20880;-68
2023/07/06 01:40:50;;;;;;;57.20;2.50;;;;;;;;;;5034949;28;20790;-68
2023/07/06 01:43:19;;;;;;;57.07;2.23;;;;;;;;;;5034843;28;20452;-68
2023/07/06 01:45:46;;;;;;;56.80;2.30;;;;;;;;;;5033108;28;20475;-68
2023/07/06 01:48:14;;;;;;;57.00;2.40;;;;;;;;;;5034552;28;20988;-68
2023/07/06 01:50:44;;;;;;;57.07;2.23;;;;;;;;;;5034609;28;20445;-68
2023/07/06 01:53:31;;;;;;;57.13;2.90;;;;;;;;;;5034336;28;20481;-69
2023/07/06 01:56:01;;;;;;;56.97;2.23;;;;;;;;;;5032500;28;20441;-67
2023/07/06 01:58:32;;;;;;;56.67;2.10;;;;;;;;;;5034555;28;20453;-68
2023/07/06 02:01:01;;;;;;;56.87;2.20;;;;;;;;;;5034306;28;20456;-68
2023/07/06 02:03:28;;;;;;;56.90;2.30;;;;;;;;;;5033447;28;20453;-68
2023/07/06 02:05:57;;;;;;;57.17;2.33;;;;;;;;;;5033786;28;20449;-68
2023/07/06 02:08:24;;;;;;;57.03;2.17;;;;;;;;;;5034163;28;20479;-68
2023/07/06 02:10:52;;;;;;;57.00;2.20;;;;;;;;;;5034558;28;20445;-68
2023/07/06 02:13:19;;;;;;;56.87;2.13;;;;;;;;;;5034207;28;21047;-68
2023/07/06 02:15:46;;;;;;;57.30;3.23;;;;;;;;;;5034336;28;20448;-68
2023/07/06 02:18:14;;;;;;;56.73;2.10;;;;;;;;;;5034446;28;20763;-68
2023/07/06 02:20:41;;;;;;;56.90;2.40;;;;;;;;;;5034090;28;20449;-68
2023/07/06 02:23:11;;;;;;;57.00;2.07;;;;;;;;;;5034347;28;20445;-69
2023/07/06 02:25:39;;;;;;;56.97;2.30;;;;;;;;;;5034023;28;20467;-69
2023/07/06 02:28:08;;;;;;;57.00;2.10;;;;;;;;;;5033913;28;20477;-69
2023/07/06 02:30:37;;;;;;;57.07;2.20;;;;;;;;;;5033991;28;20547;-69
2023/07/06 02:33:05;;;;;;;56.97;2.27;;;;;;;;;;5033931;28;20481;-68
2023/07/06 02:35:33;;;;;;;57.10;2.47;;;;;;;;;;5033462;28;20449;-68
2023/07/06 02:38:00;;;;;;;56.90;2.10;;;;;;;;;;5033980;28;20469;-69
2023/07/06 02:40:29;;;;;;;56.77;2.00;;;;;;;;;;5032924;28;20449;-68
2023/07/06 02:42:57;;;;;;;57.20;2.30;;;;;;;;;;5033942;28;20445;-68
2023/07/06 02:45:24;;;;;;;57.17;2.03;;;;;;;;;;5033692;28;20925;-67
2023/07/06 02:47:51;;;;;;;56.80;2.10;;;;;;;;;;5033619;28;20469;-67
2023/07/06 02:50:19;;;;;;;57.00;2.03;;;;;;;;;;5033886;28;20453;-68
2023/07/06 02:52:47;;;;;;;56.87;2.10;;;;;;;;;;5033654;28;21087;-68
2023/07/06 02:55:16;;;;;;;57.07;2.40;;;;;;;;;;5033472;28;20457;-68
2023/07/06 02:57:44;;;;;;;57.17;2.40;;;;;;;;;;5033418;28;20591;-68
2023/07/06 03:00:13;;;;;;;56.90;2.40;;;;;;;;;;5033662;28;20451;-68
2023/07/06 03:02:41;;;;;;;57.27;2.30;;;;;;;;;;5033333;28;20865;-68
2023/07/06 03:05:08;;;;;;;57.07;2.40;;;;;;;;;;5033383;28;20451;-68
2023/07/06 03:07:35;;;;;;;57.30;2.40;;;;;;;;;;5033275;28;20820;-68
2023/07/06 03:10:02;;;;;;;57.00;2.13;;;;;;;;;;5033389;28;20437;-68
2023/07/06 03:12:33;;;;;;;56.77;2.27;;;;;;;;;;5033901;28;20508;-69
2023/07/06 03:15:02;;;;;;;56.93;2.17;;;;;;;;;;5032900;28;20937;-69
2023/07/06 03:17:29;;;;;;;57.20;2.60;;;;;;;;;;5033180;28;20477;-69
2023/07/06 03:19:57;;;;;;;56.97;2.13;;;;;;;;;;5033064;28;20449;-69
2023/07/06 03:22:24;;;;;;;56.77;2.10;;;;;;;;;;5033199;28;20837;-68
2023/07/06 03:24:51;;;;;;;57.00;2.60;;;;;;;;;;5032931;28;20945;-69
2023/07/06 03:27:18;;;;;;;57.10;2.50;;;;;;;;;;5032653;28;20560;-69
2023/07/06 03:29:45;;;;;;;56.87;2.10;;;;;;;;;;5032779;28;20445;-67
2023/07/06 03:32:14;;;;;;;56.77;2.17;;;;;;;;;;5033218;28;20915;-68
2023/07/06 03:34:41;;;;;;;56.87;2.30;;;;;;;;;;5033245;28;20441;-67
2023/07/06 03:37:08;;;;;;;57.70;2.53;;;;;;;;;;5032393;28;20465;-67
2023/07/06 03:39:36;;;;;;;57.07;2.30;;;;;;;;;;5032831;28;20453;-67
2023/07/06 03:42:03;;;;;;;57.30;2.73;;;;;;;;;;5032637;28;20841;-68
2023/07/06 03:44:31;;;;;;;58.03;2.43;;;;;;;;;;5032779;28;20445;-68
2023/07/06 03:46:58;;;;;;;57.00;2.13;;;;;;;;;;5032173;28;20492;-68
2023/07/06 03:49:26;;;;;;;57.03;2.20;;;;;;;;;;5032693;28;20507;-68
2023/07/06 03:51:53;;;;;;;57.07;2.23;;;;;;;;;;5032296;28;20449;-68
2023/07/06 03:54:20;;;;;;;56.87;2.30;;;;;;;;;;5032622;28;20477;-69
2023/07/06 03:56:48;;;;;;;57.07;2.30;;;;;;;;;;5031798;28;20473;-68
2023/07/06 03:59:15;;;;;;;56.97;2.40;;;;;;;;;;5032261;28;20472;-68
2023/07/06 04:01:42;;;;;;;57.07;2.27;;;;;;;;;;5032405;28;20982;-68
2023/07/06 04:04:09;;;;;;;57.17;2.40;;;;;;;;;;5032356;28;20445;-68
2023/07/06 04:06:40;;;;;;;57.03;2.40;;;;;;;;;;5031834;28;20544;-69
2023/07/06 04:09:09;;;;;;;56.87;2.30;;;;;;;;;;5032142;28;20641;-69
2023/07/06 04:11:36;;;;;;;57.30;2.40;;;;;;;;;;5032324;28;20531;-68
2023/07/06 04:14:03;;;;;;;56.97;2.30;;;;;;;;;;5032084;28;20481;-68
2023/07/06 04:16:30;;;;;;;57.00;2.27;;;;;;;;;;5031691;28;20469;-69
2023/07/06 04:18:57;;;;;;;56.93;2.30;;;;;;;;;;5032050;28;20449;-68
2023/07/06 04:21:24;;;;;;;57.03;2.83;;;;;;;;;;5031905;28;20449;-69
2023/07/06 04:23:53;;;;;;;56.80;2.13;;;;;;;;;;5032265;28;20456;-70
2023/07/06 04:26:21;;;;;;;57.00;2.30;;;;;;;;;;5031581;28;20845;-68
2023/07/06 04:28:49;;;;;;;56.93;2.47;;;;;;;;;;5031845;28;20515;-69
2023/07/06 04:31:16;;;;;;;57.10;2.30;;;;;;;;;;5031961;28;20445;-67
2023/07/06 04:33:45;;;;;;;56.87;2.20;;;;;;;;;;5031725;28;20851;-68
2023/07/06 04:36:12;;;;;;;56.83;2.27;;;;;;;;;;5031213;28;20448;-68
2023/07/06 04:38:40;;;;;;;56.80;2.17;;;;;;;;;;5031562;28;20471;-67
2023/07/06 04:41:09;;;;;;;57.10;2.40;;;;;;;;;;5031738;28;20445;-68
2023/07/06 04:43:36;;;;;;;57.03;2.80;;;;;;;;;;5031658;28;20449;-68
2023/07/06 04:46:03;;;;;;;56.97;2.50;;;;;;;;;;5031310;28;20915;-68
2023/07/06 04:48:32;;;;;;;57.20;2.97;;;;;;;;;;5031403;28;20969;-68
2023/07/06 04:51:01;;;;;;;56.83;2.20;;;;;;;;;;5031358;28;21071;-68
2023/07/06 04:53:32;;;;;;;56.87;2.50;;;;;;;;;;5031411;28;20543;-68
2023/07/06 04:56:00;;;;;;;57.20;2.40;;;;;;;;;;5031133;28;20813;-68
2023/07/06 04:58:29;;;;;;;56.80;2.20;;;;;;;;;;5031431;28;20496;-68
2023/07/06 05:00:56;;;;;;;56.97;2.30;;;;;;;;;;5031367;28;20485;-68
2023/07/06 05:03:23;;;;;;;56.90;2.20;;;;;;;;;;5030513;28;20472;-67
2023/07/06 05:05:50;;;;;;;57.03;2.50;;;;;;;;;;5031089;28;20445;-67
2023/07/06 05:08:19;;;;;;;57.03;2.50;;;;;;;;;;5031235;28;20477;-67
2023/07/06 05:10:49;;;;;;;56.97;2.30;;;;;;;;;;5031319;28;20475;-68
2023/07/06 05:13:16;;;;;;;57.10;2.40;;;;;;;;;;5031282;28;20512;-67
2023/07/06 05:15:45;;;;;;;57.57;3.50;;;;;;;;;;5030646;28;20456;-68
2023/07/06 05:18:12;;;;;;;57.03;2.40;;;;;;;;;;5031174;28;20476;-67
2023/07/06 05:20:40;;;;;;;56.77;2.20;;;;;;;;;;5031253;28;20448;-68
2023/07/06 05:23:08;;;;;;;57.97;2.83;;;;;;;;;;5031050;28;20802;-67
2023/07/06 05:25:36;;;;;;;56.90;2.30;;;;;;;;;;5030929;28;20829;-68
2023/07/06 05:28:03;;;;;;;56.67;2.10;;;;;;;;;;5030998;28;20465;-67
2023/07/06 05:30:30;;;;;;;57.27;2.93;;;;;;;;;;5031095;28;20449;-69
2023/07/06 05:32:59;;;;;;;56.97;2.50;;;;;;;;;;5030933;28;21022;-69
2023/07/06 05:35:27;;;;;;;57.00;2.60;;;;;;;;;;5030802;28;20456;-68
2023/07/06 05:37:55;;;;;;;57.10;2.20;;;;;;;;;;5030987;28;20465;-69
2023/07/06 05:40:22;;;;;;;56.80;2.23;;;;;;;;;;5031035;28;20541;-69
2023/07/06 05:42:49;;;;;;;56.87;2.00;;;;;;;;;;5030996;28;20453;-69
2023/07/06 05:45:16;;;;;;;56.80;2.27;;;;;;;;;;5031201;28;20457;-69
2023/07/06 05:47:43;;;;;;;57.10;2.50;;;;;;;;;;5031082;28;20469;-68
2023/07/06 05:50:12;;;;;;;56.77;2.20;;;;;;;;;;5030942;28;20449;-68
2023/07/06 05:52:39;;;;;;;56.97;2.13;;;;;;;;;;5030697;28;20449;-68
2023/07/06 05:55:06;;;;;;;57.40;3.50;;;;;;;;;;5030446;28;20458;-68
2023/07/06 05:57:33;;;;;;;56.90;2.30;;;;;;;;;;5030651;28;20823;-68
2023/07/06 06:00:01;;;;;;;56.80;2.30;;;;;;;;;;5030852;28;20445;-67
2023/07/06 06:02:28;;;;;;;56.83;2.33;;;;;;;;;;5030325;28;20453;-68
2023/07/06 06:04:56;;;;;;;56.53;2.10;;;;;;;;;;5031078;28;20801;-68
2023/07/06 06:07:25;;;;;;;57.90;2.47;;;;;;;;;;5030338;28;20472;-68
2023/07/06 06:09:52;;;;;;;56.67;2.40;;;;;;;;;;5030494;28;20535;-68
2023/07/06 06:12:20;;;;;;;56.73;2.10;;;;;;;;;;5030228;28;20527;-67
2023/07/06 06:14:48;;;;;;;56.27;2.10;;;;;;;;;;5032371;28;20584;-68
2023/07/06 06:17:16;;;;;;;56.57;2.30;;;;;;;;;;5033315;28;20473;-68
2023/07/06 06:19:45;;;;;;;57.00;2.53;;;;;;;;;;5033824;28;20507;-68
2023/07/06 06:22:12;;;;;;;56.67;2.30;;;;;;;;;;5034252;28;20820;-67
2023/07/06 06:24:41;;;;;;;56.97;2.50;;;;;;;;;;5034250;28;20690;-68
2023/07/06 06:27:08;;;;;;;56.57;2.30;;;;;;;;;;5033708;28;20480;-68
2023/07/06 06:29:36;;;;;;;56.90;2.20;;;;;;;;;;5034170;28;20480;-68
2023/07/06 06:32:04;;;;;;;56.47;1.90;;;;;;;;;;5034099;28;20897;-68
2023/07/06 06:34:31;;;;;;;57.63;4.00;;;;;;;;;;5034001;28;20485;-68
2023/07/06 06:36:58;;;;;;;56.53;2.03;;;;;;;;;;5033040;28;20492;-67
2023/07/06 06:39:25;;;;;;;56.67;2.00;;;;;;;;;;5034147;28;20472;-67
2023/07/06 06:41:55;;;;;;;56.77;2.20;;;;;;;;;;5033848;28;20453;-68
2023/07/06 06:44:22;;;;;;;56.57;2.20;;;;;;;;;;5033538;28;20452;-69
2023/07/06 06:46:49;;;;;;;56.47;2.20;;;;;;;;;;5033278;28;20500;-67
2023/07/06 06:49:16;;;;;;;56.73;2.10;;;;;;;;;;5033673;28;20937;-67
2023/07/06 06:51:44;;;;;;;56.57;2.00;;;;;;;;;;5033485;28;20488;-67
2023/07/06 06:54:11;;;;;;;56.57;1.90;;;;;;;;;;5032837;28;20826;-68
2023/07/06 06:56:39;;;;;;;56.80;2.20;;;;;;;;;;5033056;28;20484;-67
2023/07/06 06:59:11;;;;;;;57.80;2.20;;;;;;;;;;5033242;28;20460;-67
2023/07/06 07:01:38;;;;;;;56.57;2.10;;;;;;;;;;5033517;28;20464;-67
2023/07/06 07:04:05;;;;;;;57.20;2.70;;;;;;;;;;5033122;28;20813;-67
2023/07/06 07:06:32;;;;;;;56.63;2.07;;;;;;;;;;5033042;28;20492;-67
2023/07/06 07:09:00;;;;;;;56.67;2.10;;;;;;;;;;5033075;28;20457;-67
2023/07/06 07:11:28;;;;;;;56.67;2.10;;;;;;;;;;5033169;28;20873;-67
2023/07/06 07:13:55;;;;;;;57.27;2.00;;;;;;;;;;5033239;28;20488;-67
2023/07/06 07:16:24;;;;;;;56.40;2.00;;;;;;;;;;5032943;28;20474;-67
2023/07/06 07:18:51;;;;;;;56.57;1.90;;;;;;;;;;5032898;28;20449;-67
2023/07/06 07:21:19;;;;;;;56.40;1.90;;;;;;;;;;5033409;28;20449;-67
2023/07/06 07:23:48;;;;;;;56.40;2.37;;;;;;;;;;5033013;28;20506;-67
2023/07/06 07:26:16;;;;;;;56.50;2.30;;;;;;;;;;5031899;28;20449;-67
2023/07/06 07:28:43;;;;;;;56.53;2.17;;;;;;;;;;5032922;28;20449;-67
2023/07/06 07:31:11;;;;;;;56.50;2.00;;;;;;;;;;5033171;28;20449;-67
2023/07/06 07:33:42;;;;;;;56.67;2.33;;;;;;;;;;5032604;28;20489;-67
2023/07/06 07:36:10;;;;;;;56.40;2.00;;;;;;;;;;5032657;28;20484;-67
2023/07/06 07:38:37;;;;;;;56.57;1.87;;;;;;;;;;5032643;28;20507;-67
2023/07/06 07:41:06;;;;;;;56.33;1.90;;;;;;;;;;5032592;28;20464;-70
2023/07/06 07:43:34;;;;;;;56.53;1.90;;;;;;;;;;5032525;28;20449;-67
2023/07/06 07:46:03;;;;;;;56.37;2.10;;;;;;;;;;5032017;28;20456;-67
2023/07/06 07:48:32;;;;;;;58.33;2.10;;;;;;;;;;5032527;28;20455;-69
2023/07/06 07:51:02;;;;;;;56.57;2.00;;;;;;;;;;5032716;28;20548;-69
2023/07/06 07:53:33;;;;;;;56.63;2.00;;;;;;;;;;5032448;28;20496;-67
2023/07/06 07:56:00;;;;;;;56.40;1.83;;;;;;;;;;5032002;28;20575;-67
2023/07/06 07:58:27;;;;;;;56.90;2.43;;;;;;;;;;5032331;28;20456;-69
2023/07/06 08:00:55;;;;;;;56.50;1.63;;;;;;;;;;5032340;28;20449;-67
2023/07/06 08:03:23;;;;;;;56.40;1.93;;;;;;;;;;5032215;28;20941;-69
2023/07/06 08:05:52;;;;;;;56.17;1.80;;;;;;;;;;5031823;28;20833;-68
2023/07/06 08:08:22;;;;;;;57.60;2.30;;;;;;;;;;5031795;28;21024;-68
2023/07/06 08:10:50;;;;;;;56.63;2.10;;;;;;;;;;5032124;28;20446;-68
2023/07/06 08:13:18;;;;;;;56.50;2.30;;;;;;;;;;5032256;28;20499;-68
2023/07/06 08:15:45;;;;;;;57.00;2.30;;;;;;;;;;5031911;28;20450;-68
2023/07/06 08:18:13;;;;;;;56.90;2.33;;;;;;;;;;5032047;28;20468;-67
2023/07/06 08:20:40;;;;;;;56.60;2.10;;;;;;;;;;5032001;28;20566;-68
2023/07/06 08:23:08;;;;;;;71.23;2.20;;;;;;;;;;5031788;28;20449;-68
2023/07/06 08:25:38;;;;;;;56.70;2.00;;;;;;;;;;5031487;28;20477;-68
2023/07/06 08:28:06;;;;;;;56.47;1.80;;;;;;;;;;5031575;28;20485;-68
2023/07/06 08:30:33;;;;;;;56.53;2.20;;;;;;;;;;5031803;28;20445;-68
2023/07/06 08:33:01;;;;;;;56.57;2.03;;;;;;;;;;5031822;28;20487;-68
2023/07/06 08:35:29;;;;;;;56.40;2.20;;;;;;;;;;5031766;28;20488;-68
2023/07/06 08:37:56;;;;;;;56.57;2.10;;;;;;;;;;5030537;28;20588;-68
2023/07/06 08:40:24;;;;;;;56.70;2.00;;;;;;;;;;5031723;28;20445;-68
2023/07/06 08:42:55;;;;;;;56.57;1.93;;;;;;;;;;5031705;28;20449;-68
2023/07/06 08:45:23;;;;;;;56.57;2.30;;;;;;;;;;5031264;28;20479;-68
2023/07/06 08:47:52;;;;;;;56.20;2.10;;;;;;;;;;5031492;28;20480;-68
2023/07/06 08:50:20;;;;;;;56.33;2.00;;;;;;;;;;5031303;28;20444;-68
2023/07/06 08:52:48;;;;;;;56.47;1.83;;;;;;;;;;5031533;28;20444;-68
2023/07/06 08:55:16;;;;;;;57.47;3.47;;;;;;;;;;5030091;28;20528;-68
2023/07/06 08:57:45;;;;;;;56.20;2.13;;;;;;;;;;5030936;28;20564;-68
2023/07/06 09:00:21;;;;;;;56.20;1.90;;;;;;;;;;5031330;28;20453;-68
2023/07/06 09:02:49;;;;;;;56.77;2.30;;;;;;;;;;5031081;28;20453;-68
2023/07/06 09:05:16;;;;;;;56.60;2.00;;;;;;;;;;5030918;28;20449;-68
2023/07/06 09:07:45;;;;;;;56.80;2.30;;;;;;;;;;5031148;28;20495;-68
2023/07/06 09:10:13;;;;;;;55.97;2.00;;;;;;;;;;5031350;28;21007;-68
2023/07/06 09:12:40;;;;;;;55.97;1.83;;;;;;;;;;5031409;28;20460;-68
2023/07/06 09:15:09;;;;;;;56.60;2.20;;;;;;;;;;5030823;28;20488;-68
2023/07/06 09:17:45;;;;;;;56.47;2.17;;;;;;;;;;5030825;28;20469;-68
2023/07/06 09:20:13;;;;;;;56.33;2.10;;;;;;;;;;5031089;28;20519;-68
2023/07/06 09:22:40;;;;;;;56.40;2.10;;;;;;;;;;5031014;28;20453;-68
2023/07/06 09:25:13;;;;;;;56.07;2.10;;;;;;;;;;5030993;28;20649;-68
2023/07/06 09:30:44;;;;;;;56.40;2.20;;;;;;;;;;5027504;28;20400;-68
2023/07/06 09:33:19;;;;;;;56.30;2.00;;;;;;;;;;5030611;28;20476;-68
2023/07/06 09:35:46;;;;;;;56.60;2.10;;;;;;;;;;5030739;28;20492;-68
2023/07/06 09:38:14;;;;;;;56.47;2.03;;;;;;;;;;5030378;28;20480;-68
2023/07/06 09:40:43;;;;;;;57.00;2.10;;;;;;;;;;5030357;28;20456;-68
2023/07/06 09:43:21;;;;;;;56.60;2.20;;;;;;;;;;5030844;28;20445;-68
2023/07/06 09:45:49;;;;;;;55.97;1.90;;;;;;;;;;5030264;28;21179;-68
2023/07/06 09:48:28;;;;;;;56.90;2.00;;;;;;;;;;5030623;28;21062;-69
2023/07/06 09:50:57;;;;;;;56.60;1.80;;;;;;;;;;5035056;28;20484;-69
2023/07/06 09:53:26;;;;;;;56.40;1.90;;;;;;;;;;5034897;28;20445;-69
2023/07/06 09:55:54;;;;;;;56.73;1.80;;;;;;;;;;5034266;28;20495;-69
2023/07/06 09:58:22;;;;;;;56.50;2.27;;;;;;;;;;5034607;28;20479;-69
2023/07/06 10:00:52;;;;;;;55.77;1.87;;;;;;;;;;5034797;28;20452;-69
2023/07/06 10:03:25;;;;;;;56.00;1.70;;;;;;;;;;5034847;28;20445;-69
2023/07/06 10:05:55;;;;;;;56.10;1.90;;;;;;;;;;5034351;28;20453;-69
2023/07/06 10:08:24;;;;;;;55.97;1.80;;;;;;;;;;5034790;28;20844;-69
2023/07/06 10:10:58;;;;;;;56.13;1.70;;;;;;;;;;5034285;28;20453;-69
2023/07/06 10:13:29;;;;;;;55.87;1.70;;;;;;;;;;5034330;28;21037;-69
2023/07/06 10:15:59;;;;;;;55.93;1.70;;;;;;;;;;5033940;28;20484;-69
2023/07/06 10:18:30;;;;;;;56.17;1.70;;;;;;;;;;5034204;28;21040;-69
2023/07/06 10:21:04;;;;;;;55.73;1.70;;;;;;;;;;5034127;28;20941;-69
2023/07/06 10:23:34;;;;;;;56.00;1.80;;;;;;;;;;5034389;28;20453;-67
2023/07/06 10:26:07;;;;;;;56.10;1.83;;;;;;;;;;5033893;28;20452;-67
2023/07/06 10:28:35;;;;;;;55.87;1.60;;;;;;;;;;5034248;28;20459;-67
2023/07/06 10:31:03;;;;;;;56.30;2.13;;;;;;;;;;5034073;28;20455;-67
2023/07/06 10:33:32;;;;;;;55.70;1.60;;;;;;;;;;5033843;28;20453;-67
2023/07/06 10:36:01;;;;;;;55.97;1.90;;;;;;;;;;5033587;28;20489;-67
2023/07/06 10:38:28;;;;;;;55.57;1.60;;;;;;;;;;5033901;28;20504;-68
2023/07/06 10:41:21;;;;;;;55.53;1.60;;;;;;;;;;5033896;28;20453;-69
2023/07/06 10:43:51;;;;;;;55.47;1.47;;;;;;;;;;5033858;28;20492;-68
2023/07/06 10:46:30;;;;;;;55.70;1.80;;;;;;;;;;5033255;28;20534;-68
2023/07/06 10:48:59;;;;;;;55.17;1.40;;;;;;;;;;5033997;28;20453;-68
2023/07/06 10:51:28;;;;;;;55.20;1.70;;;;;;;;;;5033815;28;20871;-68
2023/07/06 10:54:08;;;;;;;55.10;1.70;;;;;;;;;;5033652;28;20449;-68
2023/07/06 10:56:37;;;;;;;55.20;1.50;;;;;;;;;;5033187;28;20468;-68
2023/07/06 10:59:04;;;;;;;55.80;1.80;;;;;;;;;;5033581;28;20449;-69
2023/07/06 11:01:34;;;;;;;55.60;1.57;;;;;;;;;;5032525;28;20956;-69
2023/07/06 11:04:02;;;;;;;55.20;1.73;;;;;;;;;;5033590;28;20518;-69
2023/07/06 11:06:47;;;;;;;55.80;1.97;;;;;;;;;;5033280;28;20468;-69
2023/07/06 11:09:16;;;;;;;55.17;1.80;;;;;;;;;;5032621;28;20472;-69
2023/07/06 11:11:44;;;;;;;55.10;1.60;;;;;;;;;;5033231;28;20961;-69
2023/07/06 11:14:20;;;;;;;55.30;1.70;;;;;;;;;;5033384;28;20456;-68
2023/07/06 11:16:50;;;;;;;55.47;1.83;;;;;;;;;;5032806;28;20846;-68
2023/07/06 11:19:24;;;;;;;55.70;1.80;;;;;;;;;;5033000;28;20534;-69
2023/07/06 11:21:53;;;;;;;55.57;1.53;;;;;;;;;;5033408;28;20882;-68
2023/07/06 11:24:25;;;;;;;55.77;1.67;;;;;;;;;;5033155;28;20449;-69
2023/07/06 11:26:55;;;;;;;55.90;1.90;;;;;;;;;;5032791;28;20564;-68
2023/07/06 11:29:23;;;;;;;56.13;1.97;;;;;;;;;;5032618;28;20453;-68
2023/07/06 11:31:55;;;;;;;56.37;1.70;;;;;;;;;;5032664;28;20461;-68
2023/07/06 11:34:28;;;;;;;55.70;1.50;;;;;;;;;;5032956;28;20472;-68
2023/07/06 11:36:59;;;;;;;55.77;1.90;;;;;;;;;;5031882;28;20848;-69
2023/07/06 11:39:32;;;;;;;55.47;1.60;;;;;;;;;;5032723;28;20451;-69
2023/07/06 11:41:59;;;;;;;55.27;1.53;;;;;;;;;;5033047;28;20459;-69
2023/07/06 11:44:35;;;;;;;55.40;2.23;;;;;;;;;;5031939;28;20540;-69
2023/07/06 11:47:21;;;;;;;55.40;2.20;;;;;;;;;;5031655;28;20472;-69
2023/07/06 11:49:50;;;;;;;55.30;1.80;;;;;;;;;;5032099;28;20824;-69
2023/07/06 11:52:20;;;;;;;55.17;1.90;;;;;;;;;;5032400;28;20461;-69
2023/07/06 11:55:04;;;;;;;55.70;1.87;;;;;;;;;;5031768;28;20888;-69
2023/07/06 11:57:43;;;;;;;55.37;1.70;;;;;;;;;;5032758;28;20477;-69
2023/07/06 12:00:18;;;;;;;55.93;1.83;;;;;;;;;;5032247;28;20449;-69
2023/07/06 12:02:48;;;;;;;55.60;1.60;;;;;;;;;;5032388;28;20929;-69
2023/07/06 12:05:25;;;;;;;56.00;2.13;;;;;;;;;;5032363;28;20449;-69
2023/07/06 12:07:57;;;;;;;55.50;1.87;;;;;;;;;;5033217;28;20475;-69
2023/07/06 12:10:26;;;;;;;54.87;1.60;;;;;;;;;;5032886;28;20753;-69
2023/07/06 12:12:54;;;;;;;54.77;1.70;;;;;;;;;;5032673;28;20934;-68
2023/07/06 12:15:22;;;;;;;55.30;1.80;;;;;;;;;;5031851;28;20849;-68
2023/07/06 12:17:52;;;;;;;55.50;1.60;;;;;;;;;;5032551;28;20469;-68
2023/07/06 12:20:22;;;;;;;55.60;1.77;;;;;;;;;;5032790;28;20503;-68
2023/07/06 12:22:53;;;;;;;55.90;1.80;;;;;;;;;;5032584;28;20831;-68
2023/07/06 12:25:20;;;;;;;55.80;1.70;;;;;;;;;;5032089;28;20930;-69
2023/07/06 12:27:48;;;;;;;55.80;2.27;;;;;;;;;;5031977;28;20499;-68
2023/07/06 12:30:17;;;;;;;55.30;1.47;;;;;;;;;;5031488;28;20833;-69
2023/07/06 12:32:48;;;;;;;55.57;1.80;;;;;;;;;;5029730;28;20457;-69
2023/07/06 12:35:15;;;;;;;55.60;1.90;;;;;;;;;;5031364;28;20741;-69
2023/07/06 12:37:45;;;;;;;55.23;1.47;;;;;;;;;;5031588;28;20484;-70
2023/07/06 12:40:23;;;;;;;55.27;1.50;;;;;;;;;;5031315;28;20544;-69
2023/07/06 12:42:52;;;;;;;55.27;1.80;;;;;;;;;;5031450;28;20449;-70
2023/07/06 12:45:21;;;;;;;55.13;1.70;;;;;;;;;;5031035;28;20453;-70
2023/07/06 12:47:55;;;;;;;54.93;1.73;;;;;;;;;;5031055;28;20465;-70
2023/07/06 12:50:26;;;;;;;55.00;1.60;;;;;;;;;;5030994;28;20451;-69
2023/07/06 12:53:01;;;;;;;55.00;1.77;;;;;;;;;;5031236;28;20964;-70
2023/07/06 12:55:32;;;;;;;55.20;1.93;;;;;;;;;;5030929;28;20480;-70
2023/07/06 12:58:14;;;;;;;55.00;1.77;;;;;;;;;;5031267;28;20469;-70
2023/07/06 13:00:42;;;;;;;55.03;1.87;;;;;;;;;;5031115;28;20469;-69
2023/07/06 13:03:12;;;;;;;55.70;2.10;;;;;;;;;;5030720;28;20552;-69
2023/07/06 13:05:40;;;;;;;55.80;1.80;;;;;;;;;;5030811;28;20888;-69
2023/07/06 13:08:09;;;;;;;55.07;1.50;;;;;;;;;;5031224;28;20491;-69
2023/07/06 13:10:37;;;;;;;55.47;1.80;;;;;;;;;;5031351;28;20457;-69
2023/07/06 13:13:10;;;;;;;55.90;1.90;;;;;;;;;;5031145;28;20449;-69
2023/07/06 13:15:45;;;;;;;55.53;1.60;;;;;;;;;;5029942;28;21012;-70
2023/07/06 13:18:15;;;;;;;55.37;1.70;;;;;;;;;;5030716;28;20472;-69
2023/07/06 13:20:44;;;;;;;55.70;1.70;;;;;;;;;;5031707;28;20441;-70
2023/07/06 13:23:11;;;;;;;55.70;1.70;;;;;;;;;;5031244;28;20461;-70
2023/07/06 13:25:41;;;;;;;55.80;1.60;;;;;;;;;;5030820;28;20452;-68
2023/07/06 13:28:11;;;;;;;55.90;1.60;;;;;;;;;;5031119;28;20544;-68
2023/07/06 13:30:40;;;;;;;56.67;1.70;;;;;;;;;;5031070;28;20449;-68
2023/07/06 13:33:07;;;;;;;56.40;2.00;;;;;;;;;;5031280;28;20476;-68
2023/07/06 13:35:34;;;;;;;55.80;1.70;;;;;;;;;;5030802;28;20489;-68
2023/07/06 13:38:03;;;;;;;55.77;1.63;;;;;;;;;;5031160;28;20473;-68
2023/07/06 13:40:31;;;;;;;55.87;1.90;;;;;;;;;;5031077;28;20449;-68
2023/07/06 13:42:59;;;;;;;56.10;1.70;;;;;;;;;;5030912;28;20449;-68
2023/07/06 13:45:30;;;;;;;55.60;1.80;;;;;;;;;;5030493;28;20441;-68
2023/07/06 13:47:57;;;;;;;55.77;1.80;;;;;;;;;;5031071;28;20556;-68
2023/07/06 13:50:26;;;;;;;55.90;1.80;;;;;;;;;;5031235;28;20445;-68
2023/07/06 13:52:53;;;;;;;55.70;1.60;;;;;;;;;;5030991;28;20863;-68
2023/07/06 13:55:23;;;;;;;56.00;2.17;;;;;;;;;;5030971;28;20452;-68
2023/07/06 13:57:50;;;;;;;55.37;1.60;;;;;;;;;;5030564;28;20472;-68
2023/07/06 14:00:17;;;;;;;55.60;1.77;;;;;;;;;;5030960;28;20460;-69
2023/07/06 14:02:48;;;;;;;55.47;1.50;;;;;;;;;;5030942;28;20445;-69
2023/07/06 14:05:15;;;;;;;55.97;1.63;;;;;;;;;;5030743;28;20457;-69
2023/07/06 14:07:42;;;;;;;55.80;1.90;;;;;;;;;;5030686;28;20473;-69
2023/07/06 14:10:10;;;;;;;56.20;1.80;;;;;;;;;;5030725;28;20453;-69
2023/07/06 14:12:37;;;;;;;56.20;2.00;;;;;;;;;;5031054;28;20492;-69
2023/07/06 14:15:07;;;;;;;55.97;1.63;;;;;;;;;;5030413;28;20972;-69
2023/07/06 14:17:34;;;;;;;55.57;1.60;;;;;;;;;;5030762;28;20480;-68
2023/07/06 14:20:04;;;;;;;55.87;1.60;;;;;;;;;;5030695;28;20449;-68
2023/07/06 14:22:31;;;;;;;55.90;1.60;;;;;;;;;;5030792;28;20531;-68
2023/07/06 14:24:59;;;;;;;55.67;1.50;;;;;;;;;;5030327;28;20949;-68
2023/07/06 14:27:29;;;;;;;55.60;1.77;;;;;;;;;;5030607;28;20472;-68
2023/07/06 14:29:56;;;;;;;56.27;1.80;;;;;;;;;;5030678;28;20448;-69
2023/07/06 14:32:23;;;;;;;55.50;1.90;;;;;;;;;;5030580;28;20449;-71
2023/07/06 14:34:50;;;;;;;55.40;1.60;;;;;;;;;;5030489;28;20437;-69
2023/07/06 14:37:19;;;;;;;55.77;2.17;;;;;;;;;;5033122;28;20493;-69
2023/07/06 14:39:46;;;;;;;54.77;1.47;;;;;;;;;;5033928;28;20456;-69
2023/07/06 14:42:14;;;;;;;55.70;2.63;;;;;;;;;;5033941;28;20453;-69
2023/07/06 14:44:41;;;;;;;56.77;1.90;;;;;;;;;;5033948;28;20445;-69